createdAt,value
2022-08-03T00:00:26.458Z,33.21
2022-08-03T00:02:54.148Z,33.33
2022-08-03T00:05:21.582Z,33.13
2022-08-03T00:07:49.483Z,33.08
2022-08-03T00:10:18.099Z,33.13
2022-08-03T00:12:45.625Z,33.38
2022-08-03T00:15:16.443Z,33.12
2022-08-03T00:17:53.002Z,33.06
2022-08-03T00:20:21.880Z,33.09
2022-08-03T00:22:50.139Z,32.99
2022-08-03T00:25:17.605Z,32.95
2022-08-03T00:27:44.852Z,32.92
2022-08-03T00:30:12.264Z,32.93
2022-08-03T00:32:45.168Z,32.93
2022-08-03T00:35:28.061Z,33.19
2022-08-03T00:38:00.393Z,32.93
2022-08-03T00:40:27.965Z,32.65
2022-08-03T00:42:57.000Z,32.72
2022-08-03T00:45:25.690Z,32.76
2022-08-03T00:47:53.437Z,32.63
2022-08-03T00:50:23.070Z,32.75
2022-08-03T00:52:51.902Z,32.67
2022-08-03T00:55:19.380Z,32.60
2022-08-03T00:57:46.930Z,32.71
2022-08-03T01:00:15.624Z,32.68
2022-08-03T01:02:43.060Z,32.67
2022-08-03T01:05:11.038Z,32.65
2022-08-03T01:07:38.295Z,32.73
2022-08-03T01:10:14.440Z,32.55
2022-08-03T01:12:47.804Z,32.55
2022-08-03T01:15:15.071Z,32.61
2022-08-03T01:17:44.013Z,32.54
2022-08-03T01:20:15.199Z,32.77
2022-08-03T01:22:45.754Z,32.64
2022-08-03T01:25:32.066Z,32.65
2022-08-03T01:28:17.913Z,32.54
2022-08-03T01:30:46.095Z,32.43
2022-08-03T01:33:19.332Z,32.39
2022-08-03T01:35:48.791Z,32.46
2022-08-03T01:38:22.788Z,32.51
2022-08-03T01:40:52.017Z,32.55
2022-08-03T01:44:27.983Z,32.58
2022-08-03T01:46:08.323Z,32.22
2022-08-03T01:48:37.934Z,32.48
2022-08-03T01:51:06.177Z,32.44
2022-08-03T01:53:34.023Z,32.40
2022-08-03T01:56:02.677Z,32.50
2022-08-03T01:58:30.077Z,32.55
2022-08-03T02:01:01.176Z,32.37
2022-08-03T02:03:29.768Z,32.42
2022-08-03T02:06:55.637Z,32.47
2022-08-03T02:08:47.459Z,32.61
2022-08-03T02:11:15.329Z,32.34
2022-08-03T02:13:44.283Z,32.37
2022-08-03T02:16:12.521Z,32.46
2022-08-03T02:18:40.704Z,32.39
2022-08-03T02:21:11.045Z,32.39
2022-08-03T02:23:38.888Z,32.28
2022-08-03T02:26:09.411Z,32.61
2022-08-03T02:28:38.796Z,32.53
2022-08-03T02:31:11.805Z,32.43
2022-08-03T02:33:41.435Z,32.52
2022-08-03T02:36:11.453Z,32.50
2022-08-03T02:38:41.337Z,32.51
2022-08-03T02:41:13.674Z,32.50
2022-08-03T02:44:06.333Z,32.57
2022-08-03T02:46:33.792Z,32.46
2022-08-03T02:49:42.608Z,32.40
2022-08-03T02:51:52.412Z,32.46
2022-08-03T02:54:20.216Z,32.50
2022-08-03T02:56:48.669Z,32.40
2022-08-03T02:59:18.760Z,32.44
2022-08-03T03:01:46.733Z,32.40
2022-08-03T03:04:14.500Z,32.32
2022-08-03T03:06:43.107Z,32.40
2022-08-03T03:09:14.355Z,32.33
2022-08-03T03:11:42.679Z,32.19
2022-08-03T03:14:11.377Z,32.22
2022-08-03T03:16:39.541Z,32.37
2022-08-03T03:19:08.059Z,32.29
2022-08-03T03:21:36.732Z,32.28
2022-08-03T03:24:05.304Z,32.34
2022-08-03T03:26:33.346Z,32.30
2022-08-03T03:29:01.905Z,32.52
2022-08-03T03:31:29.658Z,32.46
2022-08-03T03:33:59.853Z,32.44
2022-08-03T03:36:27.261Z,32.33
2022-08-03T03:38:54.540Z,32.44
2022-08-03T03:41:21.822Z,32.51
2022-08-03T03:43:49.778Z,32.17
2022-08-03T03:46:18.934Z,32.48
2022-08-03T03:48:46.213Z,32.30
2022-08-03T03:51:13.489Z,32.29
2022-08-03T03:53:40.869Z,32.43
2022-08-03T03:56:08.237Z,32.39
2022-08-03T03:58:35.473Z,32.59
2022-08-03T04:01:02.925Z,32.39
2022-08-03T04:03:30.422Z,32.36
2022-08-03T04:06:16.467Z,32.32
2022-08-03T04:09:02.059Z,32.28
2022-08-03T04:11:32.190Z,32.40
2022-08-03T04:14:05.323Z,32.26
2022-08-03T04:16:35.226Z,32.47
2022-08-03T04:19:04.832Z,32.14
2022-08-03T04:21:32.705Z,32.24
2022-08-03T04:24:01.987Z,32.55
2022-08-03T04:26:31.631Z,32.28
2022-08-03T04:28:59.125Z,32.35
2022-08-03T04:31:27.404Z,32.37
2022-08-03T04:33:55.520Z,32.47
2022-08-03T04:36:25.222Z,32.29
2022-08-03T04:38:52.825Z,32.44
2022-08-03T04:41:21.109Z,32.54
2022-08-03T04:43:49.384Z,32.52
2022-08-03T04:46:17.323Z,32.56
2022-08-03T04:48:46.302Z,32.63
2022-08-03T04:51:16.616Z,32.55
2022-08-03T04:53:44.382Z,32.57
2022-08-03T04:56:11.738Z,32.56
2022-08-03T04:58:39.076Z,32.49
2022-08-03T05:01:06.343Z,32.53
2022-08-03T05:03:33.677Z,32.42
2022-08-03T05:06:09.353Z,32.56
2022-08-03T05:08:46.454Z,32.51
2022-08-03T05:11:15.348Z,32.63
2022-08-03T05:13:42.915Z,32.80
2022-08-03T05:16:10.338Z,32.92
2022-08-03T05:18:37.750Z,32.87
2022-08-03T05:21:05.213Z,33.10
2022-08-03T05:23:32.473Z,32.70
2022-08-03T05:25:59.790Z,33.25
2022-08-03T05:28:27.149Z,33.24
2022-08-03T05:30:54.405Z,32.88
2022-08-03T05:33:21.636Z,32.86
2022-08-03T05:35:55.865Z,32.94
2022-08-03T05:38:34.034Z,32.98
2022-08-03T05:41:22.065Z,33.18
2022-08-03T05:43:52.135Z,33.28
2022-08-03T05:46:19.584Z,33.56
2022-08-03T05:48:46.956Z,33.80
2022-08-03T05:51:14.281Z,33.79
2022-08-03T05:53:42.440Z,33.94
2022-08-03T05:56:14.119Z,34.07
2022-08-03T05:58:44.539Z,34.19
2022-08-03T06:01:11.933Z,34.14
2022-08-03T06:03:39.617Z,34.32
2022-08-03T06:06:06.960Z,34.22
2022-08-03T06:08:34.599Z,33.77
2022-08-03T06:11:01.878Z,34.36
2022-08-03T06:13:29.738Z,34.39
2022-08-03T06:15:57.287Z,34.44
2022-08-03T06:18:24.763Z,34.80
2022-08-03T06:20:52.502Z,34.80
2022-08-03T06:23:20.108Z,34.46
2022-08-03T06:25:47.618Z,34.86
2022-08-03T06:28:42.399Z,34.70
2022-08-03T06:31:02.902Z,34.79
2022-08-03T06:34:30.136Z,35.00
2022-08-03T06:36:17.464Z,35.11
2022-08-03T06:38:44.729Z,35.07
2022-08-03T06:41:12.097Z,34.94
2022-08-03T06:44:03.097Z,34.91
2022-08-03T06:46:26.909Z,35.34
2022-08-03T06:48:55.123Z,34.84
2022-08-03T06:52:02.696Z,34.93
2022-08-03T06:54:11.197Z,35.34
2022-08-03T06:56:38.422Z,35.38
2022-08-03T06:59:05.664Z,35.22
2022-08-03T07:01:33.006Z,35.21
2022-08-03T07:04:01.301Z,35.15
2022-08-03T07:06:28.550Z,35.45
2022-08-03T07:08:59.577Z,35.28
2022-08-03T07:11:28.655Z,34.91
2022-08-03T07:13:56.557Z,35.51
2022-08-03T07:16:23.833Z,35.24
2022-08-03T07:18:51.386Z,35.66
2022-08-03T07:21:18.739Z,35.25
2022-08-03T07:23:45.992Z,35.56
2022-08-03T07:26:13.373Z,35.82
2022-08-03T07:28:40.708Z,35.95
2022-08-03T07:31:08.090Z,35.66
2022-08-03T07:33:35.441Z,35.59
2022-08-03T07:36:02.847Z,35.76
2022-08-03T07:38:30.157Z,35.73
2022-08-03T07:40:57.456Z,35.84
2022-08-03T07:43:25.370Z,35.60
2022-08-03T07:45:52.770Z,35.68
2022-08-03T07:48:20.108Z,35.69
2022-08-03T07:50:47.593Z,35.53
2022-08-03T07:53:14.906Z,35.77
2022-08-03T07:55:42.545Z,35.57
2022-08-03T07:58:12.595Z,35.71
2022-08-03T08:00:39.989Z,35.95
2022-08-03T08:03:07.230Z,35.15
2022-08-03T08:05:34.747Z,35.46
2022-08-03T08:08:02.426Z,34.69
2022-08-03T08:10:29.891Z,34.50
2022-08-03T08:12:57.577Z,35.52
2022-08-03T08:15:25.229Z,35.42
2022-08-03T08:17:54.012Z,34.91
2022-08-03T08:20:28.292Z,34.48
2022-08-03T08:23:02.851Z,35.38
2022-08-03T08:25:31.697Z,34.90
2022-08-03T08:28:31.518Z,34.92
2022-08-03T08:30:50.054Z,35.42
2022-08-03T08:33:23.380Z,35.55
2022-08-03T08:35:53.191Z,35.58
2022-08-03T08:38:20.756Z,35.84
2022-08-03T08:40:48.942Z,35.23
2022-08-03T08:43:16.285Z,35.48
2022-08-03T08:45:43.890Z,35.58
2022-08-03T08:48:13.183Z,36.00
2022-08-03T08:50:40.953Z,36.22
2022-08-03T08:53:17.590Z,35.85
2022-08-03T08:55:58.417Z,36.40
2022-08-03T08:58:34.734Z,36.05
2022-08-03T09:01:02.186Z,35.89
2022-08-03T09:03:30.808Z,35.86
2022-08-03T09:05:59.496Z,35.82
2022-08-03T09:08:26.778Z,35.95
2022-08-03T09:10:54.166Z,35.86
2022-08-03T09:13:21.495Z,35.78
2022-08-03T09:15:52.746Z,36.00
2022-08-03T09:18:32.331Z,35.97
2022-08-03T09:21:30.158Z,35.82
2022-08-03T09:24:04.197Z,35.73
2022-08-03T09:26:34.818Z,35.98
2022-08-03T09:29:08.149Z,35.88
2022-08-03T09:31:39.775Z,35.52
2022-08-03T09:34:14.696Z,36.09
2022-08-03T09:36:45.895Z,35.78
2022-08-03T09:39:14.663Z,35.77
2022-08-03T09:42:02.156Z,35.97
2022-08-03T09:44:36.914Z,35.30
2022-08-03T09:47:06.141Z,35.47
2022-08-03T09:49:33.651Z,35.43
2022-08-03T09:52:30.114Z,35.58
2022-08-03T09:54:52.141Z,35.40
2022-08-03T09:57:26.373Z,35.37
2022-08-03T10:00:04.441Z,35.32
2022-08-03T10:02:40.043Z,35.06
2022-08-03T10:05:08.561Z,35.34
2022-08-03T10:07:45.943Z,35.12
2022-08-03T10:10:29.080Z,35.38
2022-08-03T10:13:00.293Z,35.23
2022-08-03T10:16:21.600Z,35.40
2022-08-03T10:18:15.304Z,34.80
2022-08-03T10:20:51.791Z,34.68
2022-08-03T10:23:21.644Z,34.70
2022-08-03T10:25:52.601Z,33.88
2022-08-03T10:28:21.336Z,34.81
2022-08-03T10:30:50.863Z,34.61
2022-08-03T10:33:51.834Z,34.48
2022-08-03T10:36:07.784Z,34.76
2022-08-03T10:38:40.512Z,34.63
2022-08-03T10:41:08.902Z,34.44
2022-08-03T10:43:39.278Z,34.50
2022-08-03T10:46:08.685Z,34.28
2022-08-03T10:48:36.742Z,34.43
2022-08-03T10:51:04.933Z,34.65
2022-08-03T10:53:36.619Z,34.28
2022-08-03T10:56:41.504Z,34.28
2022-08-03T10:59:10.563Z,34.55
2022-08-03T11:01:58.285Z,34.24
2022-08-03T11:04:30.302Z,34.52
2022-08-03T11:07:16.893Z,34.73
2022-08-03T11:09:48.779Z,34.30
2022-08-03T11:12:30.062Z,33.87
2022-08-03T11:15:00.484Z,33.98
2022-08-03T11:17:28.011Z,34.49
2022-08-03T11:19:57.049Z,34.38
2022-08-03T11:22:26.222Z,34.71
2022-08-03T11:24:57.612Z,35.06
2022-08-03T11:27:26.331Z,34.80
2022-08-03T11:30:09.362Z,34.79
2022-08-03T11:32:50.484Z,34.60
2022-08-03T11:35:21.884Z,35.02
2022-08-03T11:38:04.450Z,35.21
2022-08-03T11:40:32.664Z,35.46
2022-08-03T11:42:59.919Z,35.25
2022-08-03T11:45:27.363Z,35.09
2022-08-03T11:47:55.469Z,35.02
2022-08-03T11:50:24.106Z,35.17
2022-08-03T11:52:51.660Z,35.40
2022-08-03T11:55:21.824Z,35.16
2022-08-03T11:59:01.219Z,34.49
2022-08-03T12:00:37.570Z,35.02
2022-08-03T12:03:06.313Z,34.69
2022-08-03T12:05:37.919Z,35.33
2022-08-03T12:08:07.210Z,34.66
2022-08-03T12:10:35.377Z,34.76
2022-08-03T12:13:05.891Z,34.92
2022-08-03T12:15:54.165Z,34.91
2022-08-03T12:18:22.474Z,34.99
2022-08-03T12:20:50.945Z,35.06
2022-08-03T12:23:18.652Z,35.29
2022-08-03T12:25:47.139Z,35.13
2022-08-03T12:28:31.815Z,35.14
2022-08-03T12:31:09.548Z,35.02
2022-08-03T12:33:56.638Z,35.09
2022-08-03T12:36:24.305Z,35.29
2022-08-03T12:39:08.222Z,35.29
2022-08-03T12:41:36.857Z,34.97
2022-08-03T12:44:05.987Z,35.04
2022-08-03T12:46:34.887Z,34.85
2022-08-03T12:49:12.219Z,35.06
2022-08-03T12:51:42.525Z,35.30
2022-08-03T12:54:24.540Z,35.33
2022-08-03T12:57:02.536Z,34.93
2022-08-03T12:59:35.441Z,35.42
2022-08-03T13:02:18.489Z,34.99
2022-08-03T13:04:47.367Z,34.93
2022-08-03T13:07:15.323Z,35.10
2022-08-03T13:09:50.391Z,35.28
2022-08-03T13:12:19.041Z,35.59
2022-08-03T13:14:48.973Z,35.29
2022-08-03T13:17:19.590Z,35.16
2022-08-03T13:19:47.843Z,35.03
2022-08-03T13:22:16.727Z,35.23
2022-08-03T13:24:45.010Z,35.19
2022-08-03T13:28:02.291Z,35.07
2022-08-03T13:30:00.396Z,35.34
2022-08-03T13:32:27.726Z,35.30
2022-08-03T13:34:55.013Z,35.08
2022-08-03T13:37:22.639Z,34.95
2022-08-03T13:39:59.042Z,35.14
2022-08-03T13:42:34.115Z,35.33
2022-08-03T13:45:01.995Z,35.21
2022-08-03T13:47:29.368Z,35.03
2022-08-03T13:50:01.877Z,34.88
2022-08-03T13:52:32.103Z,34.70
2022-08-03T13:55:00.226Z,34.87
2022-08-03T13:58:03.293Z,34.96
2022-08-03T14:00:28.034Z,34.90
2022-08-03T14:03:06.583Z,35.08
2022-08-03T14:05:39.621Z,35.26
2022-08-03T14:08:07.422Z,34.85
2022-08-03T14:10:35.583Z,35.16
2022-08-03T14:13:04.168Z,34.94
2022-08-03T14:15:31.767Z,34.73
2022-08-03T14:17:59.146Z,34.99
2022-08-03T14:20:38.513Z,34.87
2022-08-03T14:23:14.871Z,34.89
2022-08-03T14:25:43.432Z,34.81
2022-08-03T14:28:18.992Z,34.84
2022-08-03T14:30:46.307Z,34.87
2022-08-03T14:33:13.568Z,34.83
2022-08-03T14:35:40.877Z,34.71
2022-08-03T14:38:08.275Z,34.81
2022-08-03T14:40:35.496Z,34.73
2022-08-03T14:43:02.808Z,34.67
2022-08-03T14:45:30.148Z,34.71
2022-08-03T14:50:33.697Z,34.64
2022-08-03T14:50:51.389Z,34.90
2022-08-03T14:53:19.898Z,34.76
2022-08-03T14:55:51.319Z,34.70
2022-08-03T14:58:21.018Z,34.72
2022-08-03T15:00:49.540Z,34.85
2022-08-03T15:03:20.419Z,35.01
2022-08-03T15:05:47.919Z,34.68
2022-08-03T15:08:15.346Z,34.56
2022-08-03T15:10:44.895Z,34.29
2022-08-03T15:13:13.638Z,34.56
2022-08-03T15:15:41.543Z,34.42
2022-08-03T15:18:08.949Z,34.73
2022-08-03T15:20:44.438Z,34.85
2022-08-03T15:23:13.545Z,34.53
2022-08-03T15:26:03.908Z,34.58
2022-08-03T15:28:28.228Z,34.64
2022-08-03T15:30:55.582Z,34.82
2022-08-03T15:33:22.983Z,34.65
2022-08-03T15:35:50.307Z,34.50
2022-08-03T15:38:17.772Z,34.56
2022-08-03T15:40:45.312Z,34.61
2022-08-03T15:43:12.775Z,34.76
2022-08-03T15:45:40.701Z,34.94
2022-08-03T15:48:09.486Z,35.05
2022-08-03T15:50:36.763Z,35.35
2022-08-03T15:53:04.271Z,35.44
2022-08-03T15:55:31.982Z,35.38
2022-08-03T15:59:04.099Z,35.60
2022-08-03T16:00:46.988Z,35.54
2022-08-03T16:03:14.348Z,35.66
2022-08-03T16:05:41.780Z,35.54
2022-08-03T16:08:13.348Z,35.71
2022-08-03T16:10:41.289Z,35.91
2022-08-03T16:13:08.600Z,35.51
2022-08-03T16:15:38.623Z,35.59
2022-08-03T16:18:06.984Z,35.84
2022-08-03T16:20:35.352Z,36.10
2022-08-03T16:23:08.504Z,36.05
2022-08-03T16:25:39.617Z,35.91
2022-08-03T16:28:13.170Z,35.89
2022-08-03T16:30:44.489Z,35.78
2022-08-03T16:33:17.431Z,35.91
2022-08-03T16:35:46.575Z,36.00
2022-08-03T16:38:18.533Z,36.38
2022-08-03T16:40:52.291Z,35.94
2022-08-03T16:43:20.531Z,35.99
2022-08-03T16:45:47.791Z,36.17
2022-08-03T16:48:15.513Z,36.21
2022-08-03T16:50:43.297Z,35.99
2022-08-03T16:53:15.533Z,35.80
2022-08-03T16:55:51.890Z,35.83
2022-08-03T16:58:34.607Z,36.01
2022-08-03T17:01:20.956Z,35.94
2022-08-03T17:03:57.152Z,36.09
2022-08-03T17:06:34.248Z,36.07
2022-08-03T17:09:04.016Z,36.13
2022-08-03T17:11:46.833Z,36.54
2022-08-03T17:14:22.069Z,36.78
2022-08-03T17:16:52.627Z,36.56
2022-08-03T17:19:23.308Z,36.76
2022-08-03T17:22:01.578Z,36.82
2022-08-03T17:24:33.559Z,36.96
2022-08-03T17:27:03.332Z,36.96
2022-08-03T17:29:32.954Z,37.22
2022-08-03T17:32:07.799Z,37.07
2022-08-03T17:34:38.425Z,37.16
2022-08-03T17:37:07.153Z,37.13
2022-08-03T17:39:59.479Z,37.40
2022-08-03T17:42:38.848Z,37.05
2022-08-03T17:45:07.381Z,37.03
2022-08-03T17:47:42.735Z,37.08
2022-08-03T17:53:15.532Z,36.70
2022-08-03T17:56:04.180Z,36.51
2022-08-03T17:58:41.324Z,36.89
2022-08-03T18:01:57.446Z,36.72
2022-08-03T18:04:29.830Z,36.91
2022-08-03T18:06:59.327Z,36.84
2022-08-03T18:10:04.807Z,37.08
2022-08-03T18:12:18.631Z,37.21
2022-08-03T18:14:57.385Z,36.97
2022-08-03T18:17:55.201Z,37.34
2022-08-03T18:20:33.134Z,37.31
2022-08-03T18:23:04.976Z,37.59
2022-08-03T18:25:45.292Z,37.49
2022-08-03T18:28:18.818Z,37.85
2022-08-03T18:30:54.688Z,37.94
2022-08-03T18:34:17.504Z,37.83
2022-08-03T18:36:17.991Z,37.88
2022-08-03T18:38:51.100Z,37.97
2022-08-03T18:41:32.943Z,37.78
2022-08-03T18:44:07.310Z,37.88
2022-08-03T18:46:46.574Z,37.81
2022-08-03T18:49:47.604Z,37.75
2022-08-03T18:52:30.774Z,37.99
2022-08-03T18:55:09.414Z,37.73
2022-08-03T18:57:53.290Z,37.84
2022-08-03T19:00:24.262Z,37.72
2022-08-03T19:03:09.375Z,37.70
2022-08-03T19:06:02.715Z,37.55
2022-08-03T19:08:50.401Z,37.44
2022-08-03T19:11:28.089Z,37.53
2022-08-03T19:13:56.785Z,37.42
2022-08-03T19:16:38.723Z,37.18
2022-08-03T19:19:10.761Z,37.12
2022-08-03T19:21:41.856Z,36.98
2022-08-03T19:24:10.196Z,36.75
2022-08-03T19:26:39.780Z,36.75
2022-08-03T19:29:10.802Z,36.80
2022-08-03T19:31:54.437Z,37.00
2022-08-03T19:34:28.212Z,37.11
2022-08-03T19:36:58.407Z,36.87
2022-08-03T19:39:26.095Z,36.93
2022-08-03T19:41:58.470Z,36.89
2022-08-03T19:44:38.342Z,36.86
2022-08-03T19:47:16.938Z,36.90
2022-08-03T19:49:57.104Z,37.15
2022-08-03T19:52:35.560Z,36.74
2022-08-03T19:55:06.657Z,36.65
2022-08-03T19:57:34.255Z,36.83
2022-08-03T20:02:50.953Z,36.71
2022-08-03T20:05:18.688Z,36.52
2022-08-03T20:07:47.655Z,36.79
2022-08-03T20:10:16.738Z,36.97
2022-08-03T20:12:45.122Z,36.78
2022-08-03T20:15:12.459Z,36.67
2022-08-03T20:17:56.592Z,36.69
2022-08-03T20:20:30.702Z,36.52
2022-08-03T20:22:58.919Z,36.58
2022-08-03T20:31:36.359Z,36.62
2022-08-03T20:34:04.321Z,36.58
2022-08-03T20:36:31.580Z,36.48
2022-08-03T20:38:59.818Z,36.68
2022-08-03T20:41:27.205Z,36.59
2022-08-03T20:43:54.820Z,36.64
2022-08-03T20:46:30.833Z,36.44
2022-08-03T20:49:09.917Z,36.26
2022-08-03T20:51:52.715Z,36.56
2022-08-03T20:54:31.311Z,36.28
2022-08-03T20:57:03.933Z,36.05
2022-08-03T20:59:47.126Z,36.25
2022-08-03T21:02:29.766Z,36.34
2022-08-03T21:04:59.120Z,36.21
2022-08-03T21:08:05.438Z,36.18
2022-08-03T21:10:28.409Z,36.39
2022-08-03T21:12:55.448Z,37.03
2022-08-03T21:13:09.879Z,37.10
2022-08-03T21:13:14.147Z,36.15
2022-08-03T21:16:06.954Z,36.00
2022-08-03T21:18:31.112Z,36.00
2022-08-03T21:21:00.209Z,35.97
2022-08-03T21:23:40.465Z,36.03
2022-08-03T21:26:16.835Z,36.37
2022-08-03T21:28:45.375Z,35.97
2022-08-03T21:31:13.529Z,35.98
2022-08-03T21:33:40.999Z,35.92
2022-08-03T21:36:14.963Z,35.94
2022-08-03T21:38:43.877Z,35.97
2022-08-03T21:41:14.764Z,35.92
2022-08-03T21:43:42.023Z,35.85
2022-08-03T21:46:12.225Z,35.86
2022-08-03T21:48:40.373Z,35.92
2022-08-03T21:51:08.921Z,35.97
2022-08-03T21:54:04.181Z,36.21
2022-08-03T21:56:26.170Z,36.22
2022-08-03T21:58:56.080Z,36.28
2022-08-03T22:01:27.392Z,36.38
2022-08-03T22:04:03.583Z,36.15
2022-08-03T22:06:30.899Z,36.26
2022-08-03T22:08:58.384Z,36.17
2022-08-03T22:11:25.708Z,36.26
2022-08-03T22:13:53.277Z,36.31
2022-08-03T22:16:21.139Z,36.33
2022-08-03T22:18:48.659Z,36.05
2022-08-03T22:21:17.155Z,35.94
2022-08-03T22:23:57.288Z,35.95
2022-08-03T22:26:32.377Z,35.99
2022-08-03T22:29:06.277Z,36.01
2022-08-03T22:31:58.363Z,35.88
2022-08-03T22:34:26.859Z,36.06
2022-08-03T22:36:55.742Z,36.02
2022-08-03T22:39:27.345Z,35.85
2022-08-03T22:41:55.582Z,36.02
2022-08-03T22:44:23.210Z,35.93
2022-08-03T22:46:50.613Z,36.10
2022-08-03T22:49:18.171Z,35.91
2022-08-03T22:51:46.080Z,35.74
2022-08-03T22:54:13.916Z,35.90
2022-08-03T22:56:41.492Z,35.91
2022-08-03T22:59:39.989Z,35.78
2022-08-03T23:02:00.619Z,35.68
2022-08-03T23:04:31.910Z,35.70
2022-08-03T23:07:02.876Z,35.69
2022-08-03T23:09:31.236Z,35.64
2022-08-03T23:12:00.424Z,35.67
2022-08-03T23:14:30.320Z,35.54
2022-08-03T23:17:00.991Z,35.82
2022-08-03T23:19:30.255Z,35.62
2022-08-03T23:22:04.058Z,35.62
2022-08-03T23:24:34.588Z,35.37
2022-08-03T23:27:05.740Z,35.53
2022-08-03T23:29:37.043Z,35.70
2022-08-03T23:32:05.130Z,35.80
2022-08-03T23:34:51.213Z,35.66
2022-08-03T23:37:21.219Z,35.55
2022-08-03T23:39:49.070Z,35.53
2022-08-03T23:42:19.946Z,35.51
2022-08-03T23:44:47.506Z,35.56
2022-08-03T23:47:14.821Z,35.44
2022-08-03T23:49:42.250Z,35.53
2022-08-03T23:52:13.653Z,35.37
2022-08-03T23:54:59.340Z,35.45
2022-08-03T23:57:29.367Z,35.30
